sensor_id;sensor_type;location;lat;lon;timestamp;pressure;altitude;pressure_sealevel;temperature;humidity
25420;BME280;13354;48.174;11.566;2022-09-09T00:00:42;95500.50;;;18.80;62.15
25420;BME280;13354;48.174;11.566;2022-09-09T00:03:14;95499.50;;;18.70;61.96
25420;BME280;13354;48.174;11.566;2022-09-09T00:08:19;95509.22;;;18.71;61.75
25420;BME280;13354;48.174;11.566;2022-09-09T00:10:45;95500.75;;;18.62;62.39
25420;BME280;13354;48.174;11.566;2022-09-09T00:15:57;95495.16;;;18.47;63.33
25420;BME280;13354;48.174;11.566;2022-09-09T00:18:27;95495.69;;;18.27;65.39
25420;BME280;13354;48.174;11.566;2022-09-09T00:23:30;95495.13;;;18.08;67.15
25420;BME280;13354;48.174;11.566;2022-09-09T00:26:09;95493.06;;;17.98;67.58
25420;BME280;13354;48.174;11.566;2022-09-09T00:28:41;95496.31;;;18.00;67.17
25420;BME280;13354;48.174;11.566;2022-09-09T00:31:13;95494.94;;;18.15;66.36
25420;BME280;13354;48.174;11.566;2022-09-09T00:33:41;95487.16;;;18.13;67.36
25420;BME280;13354;48.174;11.566;2022-09-09T00:36:09;95482.06;;;18.12;67.39
25420;BME280;13354;48.174;11.566;2022-09-09T00:38:40;95483.56;;;18.07;68.02
25420;BME280;13354;48.174;11.566;2022-09-09T00:43:33;95495.50;;;18.00;68.75
25420;BME280;13354;48.174;11.566;2022-09-09T00:46:05;95496.81;;;17.97;68.75
25420;BME280;13354;48.174;11.566;2022-09-09T00:48:37;95499.81;;;18.01;67.97
25420;BME280;13354;48.174;11.566;2022-09-09T00:51:15;95487.31;;;18.06;67.64
25420;BME280;13354;48.174;11.566;2022-09-09T00:56:20;95486.47;;;17.89;69.21
25420;BME280;13354;48.174;11.566;2022-09-09T00:59:00;95489.91;;;18.01;68.04
25420;BME280;13354;48.174;11.566;2022-09-09T01:01:29;95487.13;;;17.96;67.99
25420;BME280;13354;48.174;11.566;2022-09-09T01:03:55;95489.19;;;18.23;65.65
25420;BME280;13354;48.174;11.566;2022-09-09T01:06:30;95490.00;;;18.06;67.39
25420;BME280;13354;48.174;11.566;2022-09-09T01:14:11;95493.38;;;18.19;65.90
25420;BME280;13354;48.174;11.566;2022-09-09T01:16:38;95496.91;;;18.19;65.42
25420;BME280;13354;48.174;11.566;2022-09-09T01:19:05;95486.75;;;18.21;65.56
25420;BME280;13354;48.174;11.566;2022-09-09T01:21:41;95492.66;;;18.40;64.91
25420;BME280;13354;48.174;11.566;2022-09-09T01:26:39;95497.03;;;18.29;64.50
25420;BME280;13354;48.174;11.566;2022-09-09T01:29:11;95489.59;;;18.31;64.69
25420;BME280;13354;48.174;11.566;2022-09-09T01:31:38;95490.13;;;18.33;64.79
25420;BME280;13354;48.174;11.566;2022-09-09T01:34:09;95489.00;;;18.29;64.87
25420;BME280;13354;48.174;11.566;2022-09-09T01:36:36;95491.13;;;18.27;65.13
25420;BME280;13354;48.174;11.566;2022-09-09T01:39:03;95493.00;;;18.27;65.15
25420;BME280;13354;48.174;11.566;2022-09-09T01:41:28;95485.53;;;18.12;66.47
25420;BME280;13354;48.174;11.566;2022-09-09T01:43:54;95488.44;;;18.10;66.81
25420;BME280;13354;48.174;11.566;2022-09-09T01:46:21;95483.97;;;17.82;68.86
25420;BME280;13354;48.174;11.566;2022-09-09T01:48:46;95485.38;;;18.02;67.06
25420;BME280;13354;48.174;11.566;2022-09-09T01:51:12;95497.13;;;17.84;68.53
25420;BME280;13354;48.174;11.566;2022-09-09T01:53:38;95495.34;;;17.61;70.06
25420;BME280;13354;48.174;11.566;2022-09-09T01:56:07;95501.00;;;17.48;71.07
25420;BME280;13354;48.174;11.566;2022-09-09T01:58:43;95498.22;;;17.71;69.06
25420;BME280;13354;48.174;11.566;2022-09-09T02:01:14;95490.94;;;17.83;67.95
25420;BME280;13354;48.174;11.566;2022-09-09T02:03:40;95491.84;;;17.89;67.62
25420;BME280;13354;48.174;11.566;2022-09-09T02:06:14;95495.56;;;17.88;67.85
25420;BME280;13354;48.174;11.566;2022-09-09T02:08:47;95496.72;;;17.63;68.93
25420;BME280;13354;48.174;11.566;2022-09-09T02:11:14;95498.69;;;17.68;68.47
25420;BME280;13354;48.174;11.566;2022-09-09T02:13:40;95486.75;;;17.59;69.26
25420;BME280;13354;48.174;11.566;2022-09-09T02:16:08;95482.25;;;17.48;69.69
25420;BME280;13354;48.174;11.566;2022-09-09T02:21:02;95481.44;;;17.47;69.88
25420;BME280;13354;48.174;11.566;2022-09-09T02:23:28;95485.25;;;17.34;71.15
25420;BME280;13354;48.174;11.566;2022-09-09T02:25:53;95487.25;;;17.27;71.55
25420;BME280;13354;48.174;11.566;2022-09-09T02:28:20;95488.44;;;17.20;72.21
25420;BME280;13354;48.174;11.566;2022-09-09T02:30:46;95492.72;;;17.21;72.46
25420;BME280;13354;48.174;11.566;2022-09-09T02:33:18;95490.75;;;17.45;71.07
25420;BME280;13354;48.174;11.566;2022-09-09T02:35:44;95487.47;;;17.54;69.89
25420;BME280;13354;48.174;11.566;2022-09-09T02:38:10;95474.00;;;17.49;70.08
25420;BME280;13354;48.174;11.566;2022-09-09T02:40:37;95477.97;;;17.47;70.29
25420;BME280;13354;48.174;11.566;2022-09-09T02:43:02;95482.69;;;17.56;69.53
25420;BME280;13354;48.174;11.566;2022-09-09T02:45:31;95465.50;;;17.69;69.12
25420;BME280;13354;48.174;11.566;2022-09-09T02:50:26;95468.88;;;17.48;70.91
25420;BME280;13354;48.174;11.566;2022-09-09T02:56:00;95478.31;;;17.67;69.08
25420;BME280;13354;48.174;11.566;2022-09-09T02:58:28;95472.72;;;17.69;69.16
25420;BME280;13354;48.174;11.566;2022-09-09T03:00:54;95478.03;;;17.52;69.82
25420;BME280;13354;48.174;11.566;2022-09-09T03:03:20;95479.25;;;17.44;70.47
25420;BME280;13354;48.174;11.566;2022-09-09T03:05:47;95480.72;;;17.52;69.59
25420;BME280;13354;48.174;11.566;2022-09-09T03:08:12;95475.19;;;17.42;70.29
25420;BME280;13354;48.174;11.566;2022-09-09T03:10:38;95472.34;;;17.31;71.15
25420;BME280;13354;48.174;11.566;2022-09-09T03:13:03;95462.19;;;17.33;71.17
25420;BME280;13354;48.174;11.566;2022-09-09T03:15:30;95471.53;;;17.31;71.51
25420;BME280;13354;48.174;11.566;2022-09-09T03:17:56;95470.47;;;17.49;70.10
25420;BME280;13354;48.174;11.566;2022-09-09T03:20:22;95474.38;;;17.41;70.98
25420;BME280;13354;48.174;11.566;2022-09-09T03:22:47;95476.47;;;17.39;70.08
25420;BME280;13354;48.174;11.566;2022-09-09T03:25:13;95477.72;;;17.48;69.99
25420;BME280;13354;48.174;11.566;2022-09-09T03:27:38;95473.59;;;17.29;70.71
25420;BME280;13354;48.174;11.566;2022-09-09T03:30:03;95470.00;;;17.35;70.21
25420;BME280;13354;48.174;11.566;2022-09-09T03:32:29;95467.00;;;17.48;69.96
25420;BME280;13354;48.174;11.566;2022-09-09T03:34:55;95467.88;;;17.37;70.69
25420;BME280;13354;48.174;11.566;2022-09-09T03:37:21;95465.34;;;17.30;70.83
25420;BME280;13354;48.174;11.566;2022-09-09T03:39:47;95461.63;;;17.31;70.92
25420;BME280;13354;48.174;11.566;2022-09-09T03:42:13;95469.59;;;17.43;70.78
25420;BME280;13354;48.174;11.566;2022-09-09T03:44:45;95466.00;;;17.37;70.68
25420;BME280;13354;48.174;11.566;2022-09-09T03:47:15;95474.72;;;17.16;71.53
25420;BME280;13354;48.174;11.566;2022-09-09T03:49:40;95462.03;;;17.23;71.39
25420;BME280;13354;48.174;11.566;2022-09-09T03:52:06;95463.50;;;17.31;71.33
25420;BME280;13354;48.174;11.566;2022-09-09T03:54:31;95466.56;;;17.11;72.41
25420;BME280;13354;48.174;11.566;2022-09-09T03:56:56;95469.38;;;17.16;71.94
25420;BME280;13354;48.174;11.566;2022-09-09T03:59:22;95468.69;;;17.09;72.95
25420;BME280;13354;48.174;11.566;2022-09-09T04:01:48;95460.63;;;17.21;72.09
25420;BME280;13354;48.174;11.566;2022-09-09T04:04:13;95454.22;;;17.22;72.28
25420;BME280;13354;48.174;11.566;2022-09-09T04:06:38;95461.22;;;17.11;73.05
25420;BME280;13354;48.174;11.566;2022-09-09T04:09:04;95461.75;;;17.25;71.52
25420;BME280;13354;48.174;11.566;2022-09-09T04:11:29;95460.63;;;17.21;71.92
25420;BME280;13354;48.174;11.566;2022-09-09T04:13:54;95466.44;;;17.18;72.10
25420;BME280;13354;48.174;11.566;2022-09-09T04:16:20;95452.16;;;17.12;72.27
25420;BME280;13354;48.174;11.566;2022-09-09T04:18:45;95454.66;;;17.02;73.39
25420;BME280;13354;48.174;11.566;2022-09-09T04:21:10;95453.34;;;17.04;73.11
25420;BME280;13354;48.174;11.566;2022-09-09T04:23:37;95454.41;;;17.03;73.34
25420;BME280;13354;48.174;11.566;2022-09-09T04:26:02;95451.97;;;17.02;73.72
25420;BME280;13354;48.174;11.566;2022-09-09T04:28:29;95448.31;;;17.20;72.59
25420;BME280;13354;48.174;11.566;2022-09-09T04:30:55;95450.06;;;17.14;72.77
25420;BME280;13354;48.174;11.566;2022-09-09T04:33:23;95441.09;;;17.20;72.84
25420;BME280;13354;48.174;11.566;2022-09-09T04:35:50;95433.06;;;17.20;72.39
25420;BME280;13354;48.174;11.566;2022-09-09T04:38:16;95429.00;;;17.18;72.71
25420;BME280;13354;48.174;11.566;2022-09-09T04:40:42;95434.09;;;17.48;71.29
25420;BME280;13354;48.174;11.566;2022-09-09T04:43:08;95431.88;;;17.28;72.31
25420;BME280;13354;48.174;11.566;2022-09-09T04:45:34;95436.56;;;17.37;71.85
25420;BME280;13354;48.174;11.566;2022-09-09T04:47:59;95437.59;;;17.20;72.78
25420;BME280;13354;48.174;11.566;2022-09-09T04:50:24;95438.13;;;17.05;73.47
25420;BME280;13354;48.174;11.566;2022-09-09T04:52:50;95444.16;;;17.00;74.04
25420;BME280;13354;48.174;11.566;2022-09-09T04:55:15;95441.41;;;16.95;74.27
25420;BME280;13354;48.174;11.566;2022-09-09T04:57:41;95435.38;;;16.88;75.05
25420;BME280;13354;48.174;11.566;2022-09-09T05:00:06;95438.53;;;16.85;75.70
25420;BME280;13354;48.174;11.566;2022-09-09T05:02:32;95427.34;;;16.88;74.99
25420;BME280;13354;48.174;11.566;2022-09-09T05:04:57;95433.41;;;16.83;75.09
25420;BME280;13354;48.174;11.566;2022-09-09T05:07:23;95437.97;;;16.83;75.19
25420;BME280;13354;48.174;11.566;2022-09-09T05:09:48;95433.81;;;17.32;72.58
25420;BME280;13354;48.174;11.566;2022-09-09T05:12:14;95437.88;;;17.06;73.77
25420;BME280;13354;48.174;11.566;2022-09-09T05:14:40;95437.91;;;16.95;74.51
25420;BME280;13354;48.174;11.566;2022-09-09T05:17:05;95442.94;;;16.91;74.83
25420;BME280;13354;48.174;11.566;2022-09-09T05:19:30;95447.69;;;16.89;74.99
25420;BME280;13354;48.174;11.566;2022-09-09T05:21:56;95445.97;;;16.71;75.80
25420;BME280;13354;48.174;11.566;2022-09-09T05:24:21;95458.97;;;16.67;75.86
25420;BME280;13354;48.174;11.566;2022-09-09T05:26:48;95463.97;;;16.64;75.84
25420;BME280;13354;48.174;11.566;2022-09-09T05:29:13;95457.47;;;16.60;76.25
25420;BME280;13354;48.174;11.566;2022-09-09T05:31:39;95457.94;;;16.69;75.64
25420;BME280;13354;48.174;11.566;2022-09-09T05:34:04;95457.56;;;16.88;73.92
25420;BME280;13354;48.174;11.566;2022-09-09T05:36:29;95467.44;;;17.00;73.43
25420;BME280;13354;48.174;11.566;2022-09-09T05:38:54;95464.75;;;17.00;73.22
25420;BME280;13354;48.174;11.566;2022-09-09T05:41:20;95459.41;;;17.00;72.96
25420;BME280;13354;48.174;11.566;2022-09-09T05:43:45;95461.59;;;17.03;72.56
25420;BME280;13354;48.174;11.566;2022-09-09T05:46:12;95460.47;;;16.99;73.07
25420;BME280;13354;48.174;11.566;2022-09-09T05:48:38;95462.66;;;17.02;72.49
25420;BME280;13354;48.174;11.566;2022-09-09T05:51:05;95463.53;;;17.19;72.08
25420;BME280;13354;48.174;11.566;2022-09-09T05:53:31;95463.84;;;16.94;73.14
25420;BME280;13354;48.174;11.566;2022-09-09T05:58:25;95462.72;;;16.90;73.35
25420;BME280;13354;48.174;11.566;2022-09-09T06:00:50;95455.41;;;17.14;72.19
25420;BME280;13354;48.174;11.566;2022-09-09T06:03:15;95466.28;;;16.96;73.17
25420;BME280;13354;48.174;11.566;2022-09-09T06:05:41;95472.69;;;16.95;73.29
25420;BME280;13354;48.174;11.566;2022-09-09T06:08:07;95473.66;;;17.17;71.88
25420;BME280;13354;48.174;11.566;2022-09-09T06:10:32;95479.34;;;17.21;71.65
25420;BME280;13354;48.174;11.566;2022-09-09T06:12:59;95481.00;;;17.10;73.02
25420;BME280;13354;48.174;11.566;2022-09-09T06:15:24;95473.41;;;17.19;71.86
25420;BME280;13354;48.174;11.566;2022-09-09T06:17:53;95461.75;;;17.25;71.36
25420;BME280;13354;48.174;11.566;2022-09-09T06:20:19;95468.13;;;17.35;70.75
25420;BME280;13354;48.174;11.566;2022-09-09T06:22:45;95470.31;;;17.38;70.94
25420;BME280;13354;48.174;11.566;2022-09-09T06:25:11;95466.16;;;17.31;70.73
25420;BME280;13354;48.174;11.566;2022-09-09T06:27:37;95470.84;;;17.24;71.27
25420;BME280;13354;48.174;11.566;2022-09-09T06:30:02;95468.78;;;17.43;71.05
25420;BME280;13354;48.174;11.566;2022-09-09T06:32:28;95473.09;;;17.44;70.86
25420;BME280;13354;48.174;11.566;2022-09-09T06:34:53;95469.75;;;17.36;70.67
25420;BME280;13354;48.174;11.566;2022-09-09T06:37:19;95474.88;;;17.38;70.55
25420;BME280;13354;48.174;11.566;2022-09-09T06:39:44;95468.53;;;17.44;70.35
25420;BME280;13354;48.174;11.566;2022-09-09T06:42:09;95464.50;;;17.42;70.46
25420;BME280;13354;48.174;11.566;2022-09-09T06:44:35;95469.06;;;17.29;71.20
25420;BME280;13354;48.174;11.566;2022-09-09T06:47:00;95470.94;;;17.29;71.16
25420;BME280;13354;48.174;11.566;2022-09-09T06:49:25;95477.91;;;17.30;71.21
25420;BME280;13354;48.174;11.566;2022-09-09T06:51:50;95482.78;;;17.33;71.10
25420;BME280;13354;48.174;11.566;2022-09-09T06:54:17;95479.34;;;17.49;70.73
25420;BME280;13354;48.174;11.566;2022-09-09T06:56:42;95470.69;;;17.59;70.26
25420;BME280;13354;48.174;11.566;2022-09-09T06:59:08;95477.09;;;17.58;69.88
25420;BME280;13354;48.174;11.566;2022-09-09T07:01:35;95483.31;;;17.75;69.25
25420;BME280;13354;48.174;11.566;2022-09-09T07:04:00;95493.00;;;17.65;70.04
25420;BME280;13354;48.174;11.566;2022-09-09T07:06:30;95496.81;;;17.69;70.37
25420;BME280;13354;48.174;11.566;2022-09-09T07:08:57;95493.19;;;17.75;70.09
25420;BME280;13354;48.174;11.566;2022-09-09T07:11:24;95493.19;;;17.75;69.87
25420;BME280;13354;48.174;11.566;2022-09-09T07:13:51;95511.59;;;17.71;69.87
25420;BME280;13354;48.174;11.566;2022-09-09T07:16:17;95524.28;;;17.76;70.19
25420;BME280;13354;48.174;11.566;2022-09-09T07:18:43;95543.22;;;17.74;70.84
25420;BME280;13354;48.174;11.566;2022-09-09T07:21:09;95549.06;;;17.83;71.11
25420;BME280;13354;48.174;11.566;2022-09-09T07:23:34;95552.53;;;17.83;72.28
25420;BME280;13354;48.174;11.566;2022-09-09T07:26:06;95537.47;;;17.66;73.26
25420;BME280;13354;48.174;11.566;2022-09-09T07:28:32;95544.81;;;17.58;74.58
25420;BME280;13354;48.174;11.566;2022-09-09T07:30:58;95542.41;;;17.74;73.68
25420;BME280;13354;48.174;11.566;2022-09-09T07:33:24;95545.47;;;17.77;74.31
25420;BME280;13354;48.174;11.566;2022-09-09T07:35:49;95546.69;;;17.58;75.00
25420;BME280;13354;48.174;11.566;2022-09-09T07:38:15;95538.75;;;17.63;74.47
25420;BME280;13354;48.174;11.566;2022-09-09T07:40:40;95546.28;;;17.78;74.33
25420;BME280;13354;48.174;11.566;2022-09-09T07:43:06;95547.41;;;17.82;74.38
25420;BME280;13354;48.174;11.566;2022-09-09T07:45:31;95548.75;;;17.96;73.90
25420;BME280;13354;48.174;11.566;2022-09-09T07:47:58;95552.84;;;18.16;73.27
25420;BME280;13354;48.174;11.566;2022-09-09T07:50:24;95555.75;;;18.14;73.54
25420;BME280;13354;48.174;11.566;2022-09-09T07:52:50;95553.56;;;18.11;74.04
25420;BME280;13354;48.174;11.566;2022-09-09T07:55:16;95558.66;;;17.96;75.64
25420;BME280;13354;48.174;11.566;2022-09-09T07:57:41;95559.09;;;18.04;75.15
25420;BME280;13354;48.174;11.566;2022-09-09T08:00:06;95556.72;;;18.08;74.91
25420;BME280;13354;48.174;11.566;2022-09-09T08:02:32;95555.34;;;18.22;74.15
25420;BME280;13354;48.174;11.566;2022-09-09T08:04:57;95557.28;;;18.10;74.26
25420;BME280;13354;48.174;11.566;2022-09-09T08:07:22;95558.34;;;18.09;74.54
25420;BME280;13354;48.174;11.566;2022-09-09T08:09:48;95559.97;;;18.10;74.50
25420;BME280;13354;48.174;11.566;2022-09-09T08:12:14;95552.75;;;18.27;74.07
25420;BME280;13354;48.174;11.566;2022-09-09T08:14:39;95558.84;;;18.23;74.31
25420;BME280;13354;48.174;11.566;2022-09-09T08:17:05;95569.41;;;18.29;73.86
25420;BME280;13354;48.174;11.566;2022-09-09T08:19:30;95580.38;;;18.45;73.06
25420;BME280;13354;48.174;11.566;2022-09-09T08:21:58;95572.47;;;18.55;73.24
25420;BME280;13354;48.174;11.566;2022-09-09T08:24:23;95588.44;;;18.45;73.83
25420;BME280;13354;48.174;11.566;2022-09-09T08:26:48;95580.13;;;18.29;74.90
25420;BME280;13354;48.174;11.566;2022-09-09T08:29:14;95590.28;;;18.44;74.96
25420;BME280;13354;48.174;11.566;2022-09-09T08:31:44;95589.63;;;18.54;75.20
25420;BME280;13354;48.174;11.566;2022-09-09T08:34:09;95590.22;;;18.56;74.80
25420;BME280;13354;48.174;11.566;2022-09-09T08:36:40;95588.25;;;18.85;73.75
25420;BME280;13354;48.174;11.566;2022-09-09T08:39:07;95591.56;;;19.09;72.74
25420;BME280;13354;48.174;11.566;2022-09-09T08:41:41;95593.22;;;18.93;73.50
25420;BME280;13354;48.174;11.566;2022-09-09T08:44:18;95596.81;;;18.82;74.52
25420;BME280;13354;48.174;11.566;2022-09-09T08:51:50;95591.50;;;18.87;75.13
25420;BME280;13354;48.174;11.566;2022-09-09T08:54:18;95593.88;;;18.83;75.38
25420;BME280;13354;48.174;11.566;2022-09-09T08:56:44;95592.72;;;18.63;76.05
25420;BME280;13354;48.174;11.566;2022-09-09T08:59:09;95590.94;;;18.51;76.29
25420;BME280;13354;48.174;11.566;2022-09-09T09:01:48;95585.91;;;18.38;77.65
25420;BME280;13354;48.174;11.566;2022-09-09T09:06:48;95583.56;;;18.42;78.19
25420;BME280;13354;48.174;11.566;2022-09-09T09:09:25;95590.47;;;18.38;78.60
25420;BME280;13354;48.174;11.566;2022-09-09T09:11:53;95579.63;;;18.32;80.85
25420;BME280;13354;48.174;11.566;2022-09-09T09:14:21;95577.88;;;18.38;81.50
25420;BME280;13354;48.174;11.566;2022-09-09T09:16:54;95576.06;;;18.44;81.11
25420;BME280;13354;48.174;11.566;2022-09-09T09:19:21;95576.88;;;18.44;80.81
25420;BME280;13354;48.174;11.566;2022-09-09T09:21:53;95573.22;;;18.50;80.48
25420;BME280;13354;48.174;11.566;2022-09-09T09:24:24;95567.94;;;18.55;79.97
25420;BME280;13354;48.174;11.566;2022-09-09T09:26:52;95574.41;;;18.71;77.84
25420;BME280;13354;48.174;11.566;2022-09-09T09:29:18;95577.75;;;18.67;78.76
25420;BME280;13354;48.174;11.566;2022-09-09T09:31:50;95582.88;;;18.68;78.68
25420;BME280;13354;48.174;11.566;2022-09-09T09:34:16;95585.75;;;18.78;78.81
25420;BME280;13354;48.174;11.566;2022-09-09T09:36:43;95590.94;;;18.85;77.87
25420;BME280;13354;48.174;11.566;2022-09-09T09:39:21;95579.09;;;19.20;75.32
25420;BME280;13354;48.174;11.566;2022-09-09T09:41:46;95583.69;;;19.02;73.48
25420;BME280;13354;48.174;11.566;2022-09-09T09:44:28;95582.13;;;19.06;72.12
25420;BME280;13354;48.174;11.566;2022-09-09T09:47:05;95593.28;;;18.98;70.19
25420;BME280;13354;48.174;11.566;2022-09-09T09:49:31;95584.84;;;18.90;70.98
25420;BME280;13354;48.174;11.566;2022-09-09T09:52:00;95594.34;;;18.80;69.92
25420;BME280;13354;48.174;11.566;2022-09-09T09:54:27;95583.31;;;18.77;68.86
25420;BME280;13354;48.174;11.566;2022-09-09T09:56:54;95592.56;;;18.69;69.91
25420;BME280;13354;48.174;11.566;2022-09-09T09:59:37;95587.13;;;18.81;68.06
25420;BME280;13354;48.174;11.566;2022-09-09T10:02:10;95589.31;;;18.67;68.95
25420;BME280;13354;48.174;11.566;2022-09-09T10:04:38;95597.13;;;18.86;66.83
25420;BME280;13354;48.174;11.566;2022-09-09T10:07:15;95596.41;;;18.73;66.83
25420;BME280;13354;48.174;11.566;2022-09-09T10:09:42;95587.97;;;18.81;66.57
25420;BME280;13354;48.174;11.566;2022-09-09T10:22:35;95590.22;;;18.90;67.98
25420;BME280;13354;48.174;11.566;2022-09-09T10:25:07;95586.13;;;19.04;68.45
25420;BME280;13354;48.174;11.566;2022-09-09T10:30:15;95592.25;;;18.82;70.25
25420;BME280;13354;48.174;11.566;2022-09-09T10:36:01;95593.44;;;18.92;68.43
25420;BME280;13354;48.174;11.566;2022-09-09T10:38:20;95587.19;;;18.69;67.98
25420;BME280;13354;48.174;11.566;2022-09-09T10:48:28;95591.03;;;18.73;70.00
25420;BME280;13354;48.174;11.566;2022-09-09T10:51:11;95588.25;;;18.68;70.30
25420;BME280;13354;48.174;11.566;2022-09-09T10:56:06;95589.31;;;18.67;69.35
25420;BME280;13354;48.174;11.566;2022-09-09T10:58:36;95595.06;;;18.59;69.84
25420;BME280;13354;48.174;11.566;2022-09-09T11:01:09;95591.75;;;18.52;68.95
25420;BME280;13354;48.174;11.566;2022-09-09T11:03:35;95598.34;;;18.61;68.49
25420;BME280;13354;48.174;11.566;2022-09-09T11:06:05;95594.34;;;18.64;67.41
25420;BME280;13354;48.174;11.566;2022-09-09T11:08:31;95589.53;;;18.66;67.92
25420;BME280;13354;48.174;11.566;2022-09-09T11:13:26;95585.56;;;19.02;67.91
25420;BME280;13354;48.174;11.566;2022-09-09T11:15:58;95587.16;;;19.20;66.13
25420;BME280;13354;48.174;11.566;2022-09-09T11:18:25;95579.28;;;19.35;65.23
25420;BME280;13354;48.174;11.566;2022-09-09T11:20:55;95579.16;;;19.47;65.70
25420;BME280;13354;48.174;11.566;2022-09-09T11:23:25;95588.63;;;19.71;65.35
25420;BME280;13354;48.174;11.566;2022-09-09T11:25:56;95586.75;;;19.99;62.38
25420;BME280;13354;48.174;11.566;2022-09-09T11:33:26;95587.16;;;19.86;60.97
25420;BME280;13354;48.174;11.566;2022-09-09T11:38:47;95593.50;;;19.74;62.82
25420;BME280;13354;48.174;11.566;2022-09-09T11:41:13;95580.75;;;19.92;62.63
25420;BME280;13354;48.174;11.566;2022-09-09T11:46:04;95573.03;;;20.27;60.49
25420;BME280;13354;48.174;11.566;2022-09-09T11:48:33;95568.31;;;20.72;60.16
25420;BME280;13354;48.174;11.566;2022-09-09T11:51:03;95567.09;;;20.90;59.16
25420;BME280;13354;48.174;11.566;2022-09-09T11:53:30;95568.75;;;20.96;58.17
25420;BME280;13354;48.174;11.566;2022-09-09T11:56:02;95566.13;;;21.06;58.77
25420;BME280;13354;48.174;11.566;2022-09-09T11:58:29;95579.06;;;20.67;57.95
25420;BME280;13354;48.174;11.566;2022-09-09T12:00:57;95580.97;;;20.12;59.16
25420;BME280;13354;48.174;11.566;2022-09-09T12:08:40;95573.59;;;19.75;61.34
25420;BME280;13354;48.174;11.566;2022-09-09T12:11:07;95582.13;;;19.67;61.34
25420;BME280;13354;48.174;11.566;2022-09-09T12:13:32;95585.28;;;19.86;60.90
25420;BME280;13354;48.174;11.566;2022-09-09T12:15:59;95572.91;;;19.85;60.86
25420;BME280;13354;48.174;11.566;2022-09-09T12:18:33;95577.97;;;19.60;60.74
25420;BME280;13354;48.174;11.566;2022-09-09T12:21:34;95569.53;;;19.51;61.94
25420;BME280;13354;48.174;11.566;2022-09-09T12:23:50;95583.38;;;19.21;62.34
25420;BME280;13354;48.174;11.566;2022-09-09T12:28:45;95566.00;;;19.23;62.38
25420;BME280;13354;48.174;11.566;2022-09-09T12:31:20;95562.56;;;19.28;63.45
25420;BME280;13354;48.174;11.566;2022-09-09T12:33:48;95566.50;;;19.42;62.73
25420;BME280;13354;48.174;11.566;2022-09-09T12:36:17;95558.31;;;19.76;62.05
25420;BME280;13354;48.174;11.566;2022-09-09T12:38:44;95560.03;;;19.87;62.26
25420;BME280;13354;48.174;11.566;2022-09-09T12:41:19;95550.00;;;20.05;60.99
25420;BME280;13354;48.174;11.566;2022-09-09T12:43:45;95557.19;;;19.99;60.74
25420;BME280;13354;48.174;11.566;2022-09-09T12:46:17;95553.66;;;19.93;61.45
25420;BME280;13354;48.174;11.566;2022-09-09T12:48:46;95555.25;;;19.94;61.43
25420;BME280;13354;48.174;11.566;2022-09-09T12:51:21;95551.88;;;20.04;61.24
25420;BME280;13354;48.174;11.566;2022-09-09T12:53:50;95547.44;;;20.20;60.33
25420;BME280;13354;48.174;11.566;2022-09-09T12:56:19;95539.16;;;20.21;59.95
25420;BME280;13354;48.174;11.566;2022-09-09T12:58:46;95539.66;;;20.18;60.12
25420;BME280;13354;48.174;11.566;2022-09-09T13:01:23;95537.69;;;20.41;60.03
25420;BME280;13354;48.174;11.566;2022-09-09T13:03:49;95531.25;;;20.47;59.64
25420;BME280;13354;48.174;11.566;2022-09-09T13:06:24;95528.84;;;20.45;59.95
25420;BME280;13354;48.174;11.566;2022-09-09T13:08:50;95540.56;;;20.34;61.17
25420;BME280;13354;48.174;11.566;2022-09-09T13:11:25;95530.00;;;20.22;61.32
25420;BME280;13354;48.174;11.566;2022-09-09T13:13:52;95529.78;;;20.29;60.79
25420;BME280;13354;48.174;11.566;2022-09-09T13:16:36;95518.84;;;20.09;61.63
25420;BME280;13354;48.174;11.566;2022-09-09T13:19:06;95523.09;;;19.99;63.07
25420;BME280;13354;48.174;11.566;2022-09-09T13:21:35;95516.28;;;19.92;62.34
25420;BME280;13354;48.174;11.566;2022-09-09T13:24:02;95515.44;;;19.86;62.65
25420;BME280;13354;48.174;11.566;2022-09-09T13:26:28;95515.44;;;19.86;63.21
25420;BME280;13354;48.174;11.566;2022-09-09T13:28:55;95516.81;;;19.89;63.34
25420;BME280;13354;48.174;11.566;2022-09-09T13:31:33;95507.78;;;20.00;62.73
25420;BME280;13354;48.174;11.566;2022-09-09T13:34:10;95511.94;;;19.86;63.69
25420;BME280;13354;48.174;11.566;2022-09-09T13:36:35;95501.84;;;19.98;63.16
25420;BME280;13354;48.174;11.566;2022-09-09T13:39:01;95517.78;;;19.77;62.95
25420;BME280;13354;48.174;11.566;2022-09-09T13:41:34;95503.00;;;19.80;62.81
25420;BME280;13354;48.174;11.566;2022-09-09T13:44:00;95492.84;;;19.82;63.93
25420;BME280;13354;48.174;11.566;2022-09-09T13:46:39;95499.81;;;19.83;63.34
25420;BME280;13354;48.174;11.566;2022-09-09T13:51:36;95488.47;;;19.76;62.94
25420;BME280;13354;48.174;11.566;2022-09-09T13:54:03;95494.94;;;19.80;62.82
25420;BME280;13354;48.174;11.566;2022-09-09T13:56:28;95493.03;;;19.75;62.02
25420;BME280;13354;48.174;11.566;2022-09-09T13:58:54;95501.06;;;19.48;62.18
25420;BME280;13354;48.174;11.566;2022-09-09T14:01:19;95489.91;;;19.62;61.60
25420;BME280;13354;48.174;11.566;2022-09-09T14:03:44;95491.06;;;19.44;61.89
25420;BME280;13354;48.174;11.566;2022-09-09T14:06:10;95481.75;;;19.51;62.51
25420;BME280;13354;48.174;11.566;2022-09-09T14:08:35;95496.56;;;19.32;62.46
25420;BME280;13354;48.174;11.566;2022-09-09T14:11:02;95491.78;;;19.12;62.94
25420;BME280;13354;48.174;11.566;2022-09-09T14:13:28;95489.84;;;19.08;63.68
25420;BME280;13354;48.174;11.566;2022-09-09T14:15:53;95494.66;;;19.05;63.72
25420;BME280;13354;48.174;11.566;2022-09-09T14:18:18;95497.59;;;19.04;63.95
25420;BME280;13354;48.174;11.566;2022-09-09T14:20:48;95500.59;;;19.08;64.33